sensor_id;sensor_type;location;lat;lon;timestamp;P1;durP1;ratioP1;P2;durP2;ratioP2
20840;SDS011;10581;48.524;9.040;2022-07-05T03:07:24;27.37;;;1.50;;
20840;SDS011;10581;48.524;9.040;2022-07-05T03:09:50;27.20;;;1.70;;
20840;SDS011;10581;48.524;9.040;2022-07-05T03:12:16;28.43;;;1.40;;
20840;SDS011;10581;48.524;9.040;2022-07-05T03:14:41;27.23;;;1.63;;
20840;SDS011;10581;48.524;9.040;2022-07-05T03:17:07;28.00;;;1.63;;
20840;SDS011;10581;48.524;9.040;2022-07-05T03:19:33;27.67;;;1.30;;
20840;SDS011;10581;48.524;9.040;2022-07-05T03:21:58;27.77;;;1.70;;
20840;SDS011;10581;48.524;9.040;2022-07-05T03:24:24;27.70;;;1.57;;
20840;SDS011;10581;48.524;9.040;2022-07-05T03:26:49;27.73;;;1.43;;
20840;SDS011;10581;48.524;9.040;2022-07-05T03:29:15;27.57;;;1.50;;
20840;SDS011;10581;48.524;9.040;2022-07-05T03:31:41;27.13;;;1.60;;
20840;SDS011;10581;48.524;9.040;2022-07-05T03:34:06;27.43;;;1.67;;
20840;SDS011;10581;48.524;9.040;2022-07-05T03:36:32;32.60;;;2.23;;
20840;SDS011;10581;48.524;9.040;2022-07-05T03:38:58;27.87;;;1.50;;
20840;SDS011;10581;48.524;9.040;2022-07-05T03:41:23;27.27;;;1.40;;
20840;SDS011;10581;48.524;9.040;2022-07-05T03:43:49;27.27;;;1.40;;
20840;SDS011;10581;48.524;9.040;2022-07-05T03:46:15;27.37;;;1.43;;
20840;SDS011;10581;48.524;9.040;2022-07-05T03:48:40;26.93;;;1.30;;
20840;SDS011;10581;48.524;9.040;2022-07-05T03:51:06;27.80;;;1.83;;
20840;SDS011;10581;48.524;9.040;2022-07-05T03:53:31;26.57;;;1.40;;
20840;SDS011;10581;48.524;9.040;2022-07-05T03:55:57;27.53;;;1.70;;
20840;SDS011;10581;48.524;9.040;2022-07-05T03:58:23;28.40;;;1.80;;
20840;SDS011;10581;48.524;9.040;2022-07-05T04:00:48;28.60;;;1.90;;
20840;SDS011;10581;48.524;9.040;2022-07-05T04:03:14;27.10;;;1.50;;
20840;SDS011;10581;48.524;9.040;2022-07-05T04:05:40;27.50;;;1.67;;
20840;SDS011;10581;48.524;9.040;2022-07-05T04:08:06;27.25;;;1.50;;
20840;SDS011;10581;48.524;9.040;2022-07-05T04:10:32;27.17;;;1.50;;
20840;SDS011;10581;48.524;9.040;2022-07-05T04:12:58;27.07;;;1.53;;
20840;SDS011;10581;48.524;9.040;2022-07-05T04:15:23;27.03;;;1.67;;
20840;SDS011;10581;48.524;9.040;2022-07-05T04:17:50;27.63;;;1.50;;
20840;SDS011;10581;48.524;9.040;2022-07-05T04:20:20;27.50;;;1.48;;
20840;SDS011;10581;48.524;9.040;2022-07-05T04:22:47;27.23;;;1.70;;
20840;SDS011;10581;48.524;9.040;2022-07-05T04:25:13;27.27;;;1.40;;
20840;SDS011;10581;48.524;9.040;2022-07-05T04:27:52;27.35;;;1.60;;
20840;SDS011;10581;48.524;9.040;2022-07-05T04:30:19;27.25;;;1.40;;
20840;SDS011;10581;48.524;9.040;2022-07-05T04:32:46;27.80;;;1.65;;
20840;SDS011;10581;48.524;9.040;2022-07-05T04:35:12;26.80;;;1.37;;
20840;SDS011;10581;48.524;9.040;2022-07-05T04:37:39;27.55;;;1.67;;
20840;SDS011;10581;48.524;9.040;2022-07-05T04:40:06;27.48;;;1.40;;
20840;SDS011;10581;48.524;9.040;2022-07-05T04:42:33;27.65;;;1.92;;
20840;SDS011;10581;48.524;9.040;2022-07-05T04:44:59;27.20;;;1.70;;
20840;SDS011;10581;48.524;9.040;2022-07-05T04:47:25;30.27;;;2.00;;
20840;SDS011;10581;48.524;9.040;2022-07-05T04:49:51;28.00;;;2.10;;
20840;SDS011;10581;48.524;9.040;2022-07-05T04:52:17;27.70;;;1.90;;
20840;SDS011;10581;48.524;9.040;2022-07-05T04:54:43;28.97;;;2.50;;
20840;SDS011;10581;48.524;9.040;2022-07-05T04:57:09;27.80;;;2.10;;
20840;SDS011;10581;48.524;9.040;2022-07-05T04:59:35;30.47;;;2.50;;
20840;SDS011;10581;48.524;9.040;2022-07-05T05:02:00;28.10;;;2.10;;
20840;SDS011;10581;48.524;9.040;2022-07-05T05:04:26;29.30;;;2.00;;
20840;SDS011;10581;48.524;9.040;2022-07-05T05:06:51;27.90;;;1.90;;
20840;SDS011;10581;48.524;9.040;2022-07-05T05:09:17;28.17;;;1.97;;
20840;SDS011;10581;48.524;9.040;2022-07-05T05:11:43;27.27;;;1.90;;
20840;SDS011;10581;48.524;9.040;2022-07-05T05:14:08;29.20;;;1.80;;
20840;SDS011;10581;48.524;9.040;2022-07-05T05:16:34;27.77;;;1.60;;
20840;SDS011;10581;48.524;9.040;2022-07-05T05:19:00;27.53;;;1.30;;
20840;SDS011;10581;48.524;9.040;2022-07-05T05:21:25;27.20;;;1.80;;
20840;SDS011;10581;48.524;9.040;2022-07-05T05:23:51;27.50;;;1.90;;
20840;SDS011;10581;48.524;9.040;2022-07-05T05:26:17;28.40;;;1.70;;
20840;SDS011;10581;48.524;9.040;2022-07-05T05:36:00;27.57;;;1.60;;
20840;SDS011;10581;48.524;9.040;2022-07-05T05:38:26;27.95;;;1.80;;
20840;SDS011;10581;48.524;9.040;2022-07-05T05:40:52;29.98;;;2.70;;
20840;SDS011;10581;48.524;9.040;2022-07-05T05:43:18;30.10;;;2.10;;
20840;SDS011;10581;48.524;9.040;2022-07-05T05:45:44;30.40;;;2.30;;
20840;SDS011;10581;48.524;9.040;2022-07-05T05:48:10;29.38;;;1.70;;
20840;SDS011;10581;48.524;9.040;2022-07-05T09:13:38;36.58;;;5.30;;
20840;SDS011;10581;48.524;9.040;2022-07-05T09:23:38;53.75;;;4.30;;
20840;SDS011;10581;48.524;9.040;2022-07-05T09:26:04;37.03;;;3.67;;
20840;SDS011;10581;48.524;9.040;2022-07-05T09:28:29;36.30;;;3.47;;
20840;SDS011;10581;48.524;9.040;2022-07-05T09:30:55;40.90;;;4.80;;
20840;SDS011;10581;48.524;9.040;2022-07-05T09:35:53;40.30;;;4.15;;
20840;SDS011;10581;48.524;9.040;2022-07-05T09:38:26;39.20;;;4.10;;
20840;SDS011;10581;48.524;9.040;2022-07-05T09:40:56;37.65;;;4.25;;
20840;SDS011;10581;48.524;9.040;2022-07-05T09:43:23;38.70;;;4.90;;
20840;SDS011;10581;48.524;9.040;2022-07-05T09:45:52;38.70;;;4.95;;
20840;SDS011;10581;48.524;9.040;2022-07-05T09:51:04;38.40;;;5.20;;
20840;SDS011;10581;48.524;9.040;2022-07-05T09:56:25;39.67;;;5.67;;
20840;SDS011;10581;48.524;9.040;2022-07-05T09:58:54;40.50;;;6.82;;
20840;SDS011;10581;48.524;9.040;2022-07-05T10:03:56;40.88;;;7.53;;
20840;SDS011;10581;48.524;9.040;2022-07-05T10:06:23;40.47;;;6.88;;
20840;SDS011;10581;48.524;9.040;2022-07-05T10:08:50;41.83;;;7.15;;
20840;SDS011;10581;48.524;9.040;2022-07-05T10:11:18;41.13;;;5.35;;
20840;SDS011;10581;48.524;9.040;2022-07-05T10:13:49;41.17;;;5.93;;
20840;SDS011;10581;48.524;9.040;2022-07-05T10:16:16;40.55;;;4.50;;
20840;SDS011;10581;48.524;9.040;2022-07-05T10:18:44;40.10;;;3.45;;
20840;SDS011;10581;48.524;9.040;2022-07-05T10:21:12;40.28;;;3.58;;
20840;SDS011;10581;48.524;9.040;2022-07-05T10:23:42;40.50;;;6.38;;
20840;SDS011;10581;48.524;9.040;2022-07-05T10:26:21;40.10;;;3.75;;
20840;SDS011;10581;48.524;9.040;2022-07-05T10:28:52;39.70;;;3.20;;
20840;SDS011;10581;48.524;9.040;2022-07-05T10:31:18;40.28;;;5.45;;
20840;SDS011;10581;48.524;9.040;2022-07-05T10:33:44;40.50;;;3.30;;
20840;SDS011;10581;48.524;9.040;2022-07-05T10:36:11;40.00;;;2.90;;
20840;SDS011;10581;48.524;9.040;2022-07-05T10:38:39;40.70;;;3.72;;
20840;SDS011;10581;48.524;9.040;2022-07-05T10:41:08;40.55;;;2.95;;
20840;SDS011;10581;48.524;9.040;2022-07-05T10:43:37;41.20;;;3.00;;
20840;SDS011;10581;48.524;9.040;2022-07-05T10:46:03;40.60;;;3.70;;
20840;SDS011;10581;48.524;9.040;2022-07-05T10:48:33;40.17;;;2.90;;
20840;SDS011;10581;48.524;9.040;2022-07-05T11:03:52;40.85;;;2.78;;
20840;SDS011;10581;48.524;9.040;2022-07-05T11:06:28;43.33;;;3.22;;
20840;SDS011;10581;48.524;9.040;2022-07-05T11:17:32;40.53;;;2.95;;
20840;SDS011;10581;48.524;9.040;2022-07-05T11:19:33;40.83;;;2.92;;
20840;SDS011;10581;48.524;9.040;2022-07-05T11:22:03;40.80;;;3.20;;
20840;SDS011;10581;48.524;9.040;2022-07-05T11:24:33;42.60;;;6.55;;
20840;SDS011;10581;48.524;9.040;2022-07-05T11:27:03;43.15;;;6.50;;
20840;SDS011;10581;48.524;9.040;2022-07-05T11:29:53;41.67;;;6.95;;
20840;SDS011;10581;48.524;9.040;2022-07-05T11:32:21;41.40;;;4.65;;
20840;SDS011;10581;48.524;9.040;2022-07-05T11:34:54;41.50;;;5.22;;
20840;SDS011;10581;48.524;9.040;2022-07-05T11:37:26;42.30;;;7.25;;
20840;SDS011;10581;48.524;9.040;2022-07-05T11:42:35;41.92;;;7.80;;
20840;SDS011;10581;48.524;9.040;2022-07-05T11:45:21;41.30;;;5.80;;
20840;SDS011;10581;48.524;9.040;2022-07-05T11:47:47;41.60;;;6.10;;
20840;SDS011;10581;48.524;9.040;2022-07-05T11:50:13;41.00;;;4.20;;
20840;SDS011;10581;48.524;9.040;2022-07-05T11:52:39;41.97;;;6.30;;
20840;SDS011;10581;48.524;9.040;2022-07-05T11:55:06;42.00;;;5.90;;
20840;SDS011;10581;48.524;9.040;2022-07-05T11:57:33;41.40;;;6.18;;
20840;SDS011;10581;48.524;9.040;2022-07-05T12:00:00;41.83;;;5.63;;
20840;SDS011;10581;48.524;9.040;2022-07-05T12:02:26;43.23;;;6.93;;
20840;SDS011;10581;48.524;9.040;2022-07-05T12:04:55;42.63;;;6.57;;
20840;SDS011;10581;48.524;9.040;2022-07-05T12:07:25;42.42;;;6.68;;
20840;SDS011;10581;48.524;9.040;2022-07-05T12:09:55;42.50;;;6.35;;
20840;SDS011;10581;48.524;9.040;2022-07-05T12:12:40;42.72;;;5.05;;
20840;SDS011;10581;48.524;9.040;2022-07-05T12:15:09;43.70;;;7.45;;
20840;SDS011;10581;48.524;9.040;2022-07-05T12:17:43;42.95;;;5.40;;
20840;SDS011;10581;48.524;9.040;2022-07-05T12:20:13;43.10;;;5.63;;
20840;SDS011;10581;48.524;9.040;2022-07-05T12:22:45;43.40;;;6.25;;
20840;SDS011;10581;48.524;9.040;2022-07-05T12:25:15;43.47;;;5.90;;
20840;SDS011;10581;48.524;9.040;2022-07-05T12:27:43;49.65;;;8.80;;
20840;SDS011;10581;48.524;9.040;2022-07-05T12:30:10;43.65;;;6.93;;
20840;SDS011;10581;48.524;9.040;2022-07-05T12:38:07;43.03;;;8.50;;
20840;SDS011;10581;48.524;9.040;2022-07-05T12:40:39;43.88;;;13.50;;
20840;SDS011;10581;48.524;9.040;2022-07-05T12:43:08;43.75;;;10.73;;
20840;SDS011;10581;48.524;9.040;2022-07-05T12:45:34;43.85;;;10.95;;
20840;SDS011;10581;48.524;9.040;2022-07-05T12:48:02;43.47;;;8.60;;
20840;SDS011;10581;48.524;9.040;2022-07-05T12:50:30;43.00;;;8.15;;
20840;SDS011;10581;48.524;9.040;2022-07-05T12:53:12;42.90;;;8.32;;
20840;SDS011;10581;48.524;9.040;2022-07-05T12:56:09;42.42;;;5.43;;
20840;SDS011;10581;48.524;9.040;2022-07-05T12:58:55;43.88;;;9.85;;
20840;SDS011;10581;48.524;9.040;2022-07-05T13:01:22;44.13;;;8.52;;
20840;SDS011;10581;48.524;9.040;2022-07-05T13:03:59;43.72;;;8.23;;
20840;SDS011;10581;48.524;9.040;2022-07-05T13:06:39;42.45;;;7.05;;
20840;SDS011;10581;48.524;9.040;2022-07-05T13:09:16;43.80;;;11.95;;
20840;SDS011;10581;48.524;9.040;2022-07-05T13:14:32;42.45;;;5.45;;
20840;SDS011;10581;48.524;9.040;2022-07-05T13:16:59;41.97;;;5.75;;
20840;SDS011;10581;48.524;9.040;2022-07-05T13:19:24;42.60;;;6.13;;
20840;SDS011;10581;48.524;9.040;2022-07-05T13:21:50;41.60;;;5.07;;
20840;SDS011;10581;48.524;9.040;2022-07-05T13:24:16;41.67;;;5.40;;
20840;SDS011;10581;48.524;9.040;2022-07-05T13:26:41;41.67;;;5.20;;
20840;SDS011;10581;48.524;9.040;2022-07-05T13:29:07;41.30;;;4.60;;
20840;SDS011;10581;48.524;9.040;2022-07-05T13:31:33;41.57;;;5.57;;
20840;SDS011;10581;48.524;9.040;2022-07-05T13:33:58;42.20;;;6.73;;
20840;SDS011;10581;48.524;9.040;2022-07-05T13:36:25;41.60;;;6.10;;
20840;SDS011;10581;48.524;9.040;2022-07-05T13:38:51;43.05;;;8.65;;
20840;SDS011;10581;48.524;9.040;2022-07-05T13:41:17;42.90;;;6.40;;
20840;SDS011;10581;48.524;9.040;2022-07-05T13:43:43;42.37;;;6.00;;
20840;SDS011;10581;48.524;9.040;2022-07-05T13:46:09;42.50;;;7.13;;
20840;SDS011;10581;48.524;9.040;2022-07-05T13:48:36;41.92;;;4.80;;
20840;SDS011;10581;48.524;9.040;2022-07-05T13:51:02;43.30;;;5.15;;
20840;SDS011;10581;48.524;9.040;2022-07-05T13:53:28;42.07;;;5.90;;
20840;SDS011;10581;48.524;9.040;2022-07-05T13:55:54;41.77;;;5.73;;
20840;SDS011;10581;48.524;9.040;2022-07-05T13:58:19;42.00;;;6.47;;
20840;SDS011;10581;48.524;9.040;2022-07-05T14:00:45;41.70;;;5.57;;
20840;SDS011;10581;48.524;9.040;2022-07-05T14:03:11;41.73;;;4.80;;
20840;SDS011;10581;48.524;9.040;2022-07-05T14:05:37;42.80;;;6.13;;
20840;SDS011;10581;48.524;9.040;2022-07-05T14:08:02;42.50;;;7.00;;
20840;SDS011;10581;48.524;9.040;2022-07-05T14:10:28;42.88;;;9.00;;
20840;SDS011;10581;48.524;9.040;2022-07-05T14:12:54;43.63;;;10.70;;
20840;SDS011;10581;48.524;9.040;2022-07-05T14:15:20;42.73;;;7.93;;
20840;SDS011;10581;48.524;9.040;2022-07-05T14:17:46;42.30;;;6.23;;
20840;SDS011;10581;48.524;9.040;2022-07-05T14:20:11;43.77;;;11.37;;
20840;SDS011;10581;48.524;9.040;2022-07-05T14:22:38;42.95;;;9.57;;
20840;SDS011;10581;48.524;9.040;2022-07-05T14:25:04;42.67;;;7.40;;
20840;SDS011;10581;48.524;9.040;2022-07-05T14:27:30;44.00;;;10.77;;
20840;SDS011;10581;48.524;9.040;2022-07-05T14:29:56;43.10;;;7.67;;
20840;SDS011;10581;48.524;9.040;2022-07-05T14:32:22;42.05;;;5.72;;
20840;SDS011;10581;48.524;9.040;2022-07-05T14:34:48;41.87;;;5.60;;
20840;SDS011;10581;48.524;9.040;2022-07-05T14:37:13;41.80;;;5.00;;
20840;SDS011;10581;48.524;9.040;2022-07-05T14:39:39;42.10;;;6.70;;
20840;SDS011;10581;48.524;9.040;2022-07-05T14:42:05;42.47;;;5.30;;
20840;SDS011;10581;48.524;9.040;2022-07-05T14:44:31;41.50;;;5.00;;
20840;SDS011;10581;48.524;9.040;2022-07-05T14:46:56;42.30;;;7.20;;
20840;SDS011;10581;48.524;9.040;2022-07-05T14:49:22;55.07;;;8.77;;
20840;SDS011;10581;48.524;9.040;2022-07-05T14:51:48;43.90;;;8.80;;
20840;SDS011;10581;48.524;9.040;2022-07-05T14:54:13;42.40;;;6.30;;
20840;SDS011;10581;48.524;9.040;2022-07-05T14:56:39;42.60;;;7.20;;
20840;SDS011;10581;48.524;9.040;2022-07-05T14:59:05;43.20;;;5.43;;
20840;SDS011;10581;48.524;9.040;2022-07-05T15:01:31;42.20;;;6.27;;
20840;SDS011;10581;48.524;9.040;2022-07-05T15:03:56;42.27;;;4.97;;
20840;SDS011;10581;48.524;9.040;2022-07-05T15:06:22;41.80;;;5.10;;
20840;SDS011;10581;48.524;9.040;2022-07-05T15:08:48;41.80;;;5.80;;
20840;SDS011;10581;48.524;9.040;2022-07-05T15:11:13;42.37;;;6.03;;
20840;SDS011;10581;48.524;9.040;2022-07-05T15:13:39;42.67;;;5.70;;
20840;SDS011;10581;48.524;9.040;2022-07-05T15:16:05;43.67;;;5.43;;
20840;SDS011;10581;48.524;9.040;2022-07-05T15:18:30;45.60;;;5.80;;
20840;SDS011;10581;48.524;9.040;2022-07-05T15:20:56;41.43;;;5.07;;
20840;SDS011;10581;48.524;9.040;2022-07-05T15:23:22;41.47;;;5.70;;
20840;SDS011;10581;48.524;9.040;2022-07-05T15:25:53;40.97;;;5.32;;
20840;SDS011;10581;48.524;9.040;2022-07-05T15:28:19;41.67;;;5.20;;
20840;SDS011;10581;48.524;9.040;2022-07-05T15:30:45;41.75;;;5.00;;
20840;SDS011;10581;48.524;9.040;2022-07-05T15:33:12;41.90;;;4.95;;
20840;SDS011;10581;48.524;9.040;2022-07-05T15:35:37;41.80;;;5.57;;
20840;SDS011;10581;48.524;9.040;2022-07-05T15:38:03;41.87;;;5.23;;
20840;SDS011;10581;48.524;9.040;2022-07-05T15:40:29;41.93;;;6.30;;
20840;SDS011;10581;48.524;9.040;2022-07-05T15:42:54;43.00;;;5.90;;
20840;SDS011;10581;48.524;9.040;2022-07-05T15:45:20;41.37;;;4.90;;
20840;SDS011;10581;48.524;9.040;2022-07-05T15:47:46;41.95;;;5.25;;
20840;SDS011;10581;48.524;9.040;2022-07-05T15:50:12;41.27;;;4.73;;
20840;SDS011;10581;48.524;9.040;2022-07-05T15:52:38;41.67;;;5.80;;
20840;SDS011;10581;48.524;9.040;2022-07-05T15:55:05;43.20;;;4.95;;
20840;SDS011;10581;48.524;9.040;2022-07-05T15:57:32;43.35;;;5.57;;
20840;SDS011;10581;48.524;9.040;2022-07-05T15:59:58;44.40;;;5.57;;
20840;SDS011;10581;48.524;9.040;2022-07-05T16:02:24;42.55;;;6.60;;
20840;SDS011;10581;48.524;9.040;2022-07-05T16:04:50;45.22;;;9.85;;
20840;SDS011;10581;48.524;9.040;2022-07-05T16:07:16;42.88;;;7.28;;
20840;SDS011;10581;48.524;9.040;2022-07-05T16:09:43;43.35;;;8.57;;
20840;SDS011;10581;48.524;9.040;2022-07-05T16:12:14;42.90;;;7.45;;
20840;SDS011;10581;48.524;9.040;2022-07-05T16:14:44;41.90;;;5.45;;
20840;SDS011;10581;48.524;9.040;2022-07-05T16:17:09;43.70;;;6.00;;
20840;SDS011;10581;48.524;9.040;2022-07-05T16:19:35;42.87;;;8.23;;
20840;SDS011;10581;48.524;9.040;2022-07-05T16:22:00;42.17;;;6.60;;
20840;SDS011;10581;48.524;9.040;2022-07-05T16:24:26;42.10;;;6.10;;
20840;SDS011;10581;48.524;9.040;2022-07-05T16:26:52;41.97;;;5.80;;
20840;SDS011;10581;48.524;9.040;2022-07-05T16:29:17;42.07;;;6.23;;
20840;SDS011;10581;48.524;9.040;2022-07-05T16:31:43;42.60;;;5.30;;
20840;SDS011;10581;48.524;9.040;2022-07-05T16:34:09;41.53;;;5.00;;
20840;SDS011;10581;48.524;9.040;2022-07-05T16:36:35;42.03;;;5.23;;
20840;SDS011;10581;48.524;9.040;2022-07-05T16:39:01;42.55;;;6.15;;
20840;SDS011;10581;48.524;9.040;2022-07-05T16:41:28;42.58;;;5.85;;
20840;SDS011;10581;48.524;9.040;2022-07-05T16:43:54;42.95;;;5.82;;
20840;SDS011;10581;48.524;9.040;2022-07-05T16:46:19;41.87;;;7.00;;
20840;SDS011;10581;48.524;9.040;2022-07-05T16:48:46;43.63;;;11.05;;
20840;SDS011;10581;48.524;9.040;2022-07-05T16:51:14;44.13;;;11.15;;
20840;SDS011;10581;48.524;9.040;2022-07-05T16:53:41;44.85;;;13.38;;
20840;SDS011;10581;48.524;9.040;2022-07-05T16:56:09;47.33;;;13.13;;
20840;SDS011;10581;48.524;9.040;2022-07-05T16:58:37;45.13;;;11.73;;
20840;SDS011;10581;48.524;9.040;2022-07-05T17:01:05;45.03;;;8.93;;
20840;SDS011;10581;48.524;9.040;2022-07-05T17:03:34;43.60;;;5.60;;
20840;SDS011;10581;48.524;9.040;2022-07-05T17:06:00;43.70;;;4.83;;
20840;SDS011;10581;48.524;9.040;2022-07-05T17:08:26;43.77;;;3.80;;
20840;SDS011;10581;48.524;9.040;2022-07-05T17:10:52;43.90;;;4.60;;
20840;SDS011;10581;48.524;9.040;2022-07-05T17:13:17;43.60;;;4.40;;
20840;SDS011;10581;48.524;9.040;2022-07-05T17:15:43;44.40;;;5.43;;
20840;SDS011;10581;48.524;9.040;2022-07-05T17:18:09;44.07;;;4.43;;
20840;SDS011;10581;48.524;9.040;2022-07-05T17:20:35;45.70;;;4.10;;
20840;SDS011;10581;48.524;9.040;2022-07-05T17:23:00;43.63;;;4.50;;
20840;SDS011;10581;48.524;9.040;2022-07-05T17:25:26;43.60;;;4.00;;
20840;SDS011;10581;48.524;9.040;2022-07-05T17:27:52;43.23;;;4.47;;
20840;SDS011;10581;48.524;9.040;2022-07-05T17:30:17;43.37;;;4.03;;
20840;SDS011;10581;48.524;9.040;2022-07-05T17:32:43;43.77;;;4.03;;
20840;SDS011;10581;48.524;9.040;2022-07-05T17:35:09;43.23;;;3.60;;
20840;SDS011;10581;48.524;9.040;2022-07-05T17:37:35;43.60;;;3.85;;
20840;SDS011;10581;48.524;9.040;2022-07-05T17:40:00;43.27;;;3.50;;
20840;SDS011;10581;48.524;9.040;2022-07-05T17:42:26;45.50;;;3.73;;
20840;SDS011;10581;48.524;9.040;2022-07-05T17:44:52;43.80;;;5.57;;
20840;SDS011;10581;48.524;9.040;2022-07-05T17:47:17;43.00;;;3.97;;
20840;SDS011;10581;48.524;9.040;2022-07-05T17:49:43;43.67;;;4.00;;
20840;SDS011;10581;48.524;9.040;2022-07-05T17:52:09;43.03;;;5.20;;
20840;SDS011;10581;48.524;9.040;2022-07-05T17:54:35;43.50;;;5.63;;
20840;SDS011;10581;48.524;9.040;2022-07-05T17:57:01;43.00;;;5.03;;
20840;SDS011;10581;48.524;9.040;2022-07-05T17:59:27;42.60;;;5.17;;
20840;SDS011;10581;48.524;9.040;2022-07-05T18:01:53;43.10;;;6.53;;
20840;SDS011;10581;48.524;9.040;2022-07-05T18:14:01;45.10;;;6.80;;
20840;SDS011;10581;48.524;9.040;2022-07-05T18:18:52;42.97;;;7.10;;
20840;SDS011;10581;48.524;9.040;2022-07-05T18:21:18;43.03;;;6.50;;
20840;SDS011;10581;48.524;9.040;2022-07-05T18:23:45;42.70;;;7.80;;
20840;SDS011;10581;48.524;9.040;2022-07-05T18:26:11;41.97;;;5.35;;
20840;SDS011;10581;48.524;9.040;2022-07-05T18:28:37;41.97;;;5.95;;
20840;SDS011;10581;48.524;9.040;2022-07-05T18:31:03;41.97;;;6.50;;
20840;SDS011;10581;48.524;9.040;2022-07-05T18:33:29;42.30;;;6.20;;
20840;SDS011;10581;48.524;9.040;2022-07-05T18:35:54;41.80;;;6.00;;
20840;SDS011;10581;48.524;9.040;2022-07-05T18:38:20;41.07;;;4.60;;
20840;SDS011;10581;48.524;9.040;2022-07-05T18:40:45;41.53;;;5.40;;
20840;SDS011;10581;48.524;9.040;2022-07-05T18:43:11;41.60;;;5.30;;
20840;SDS011;10581;48.524;9.040;2022-07-05T18:45:37;44.07;;;6.80;;
20840;SDS011;10581;48.524;9.040;2022-07-05T18:48:03;41.03;;;4.03;;
20840;SDS011;10581;48.524;9.040;2022-07-05T18:50:28;40.17;;;3.20;;
20840;SDS011;10581;48.524;9.040;2022-07-05T18:52:54;40.20;;;3.08;;
20840;SDS011;10581;48.524;9.040;2022-07-05T18:55:20;39.77;;;2.90;;
20840;SDS011;10581;48.524;9.040;2022-07-05T19:02:38;39.65;;;2.85;;
20840;SDS011;10581;48.524;9.040;2022-07-05T19:10:15;39.70;;;3.90;;
20840;SDS011;10581;48.524;9.040;2022-07-05T19:12:59;39.67;;;3.60;;
20840;SDS011;10581;48.524;9.040;2022-07-05T19:18:08;39.20;;;4.50;;
20840;SDS011;10581;48.524;9.040;2022-07-05T19:20:34;38.90;;;3.80;;
20840;SDS011;10581;48.524;9.040;2022-07-05T19:25:26;39.75;;;8.25;;
20840;SDS011;10581;48.524;9.040;2022-07-05T19:27:52;38.10;;;4.23;;
20840;SDS011;10581;48.524;9.040;2022-07-05T19:30:17;38.57;;;5.90;;
20840;SDS011;10581;48.524;9.040;2022-07-05T19:32:43;38.23;;;6.43;;
20840;SDS011;10581;48.524;9.040;2022-07-05T19:37:34;38.00;;;5.50;;
20840;SDS011;10581;48.524;9.040;2022-07-05T19:49:42;37.87;;;7.30;;
20840;SDS011;10581;48.524;9.040;2022-07-05T19:54:33;37.30;;;7.50;;
20840;SDS011;10581;48.524;9.040;2022-07-05T20:11:36;39.60;;;12.43;;
20840;SDS011;10581;48.524;9.040;2022-07-05T20:14:02;40.30;;;10.90;;
20840;SDS011;10581;48.524;9.040;2022-07-05T20:16:28;39.38;;;9.50;;
20840;SDS011;10581;48.524;9.040;2022-07-05T20:18:53;38.43;;;11.77;;
20840;SDS011;10581;48.524;9.040;2022-07-05T20:21:19;39.70;;;11.80;;
20840;SDS011;10581;48.524;9.040;2022-07-05T20:23:45;38.70;;;11.90;;
20840;SDS011;10581;48.524;9.040;2022-07-05T20:26:11;38.50;;;11.47;;
20840;SDS011;10581;48.524;9.040;2022-07-05T20:28:37;39.43;;;12.47;;
20840;SDS011;10581;48.524;9.040;2022-07-05T20:31:02;38.97;;;11.57;;
20840;SDS011;10581;48.524;9.040;2022-07-05T20:33:28;38.30;;;11.00;;
20840;SDS011;10581;48.524;9.040;2022-07-05T20:35:54;37.67;;;10.50;;
20840;SDS011;10581;48.524;9.040;2022-07-05T20:38:20;37.90;;;11.93;;
20840;SDS011;10581;48.524;9.040;2022-07-05T20:40:46;38.07;;;13.27;;
20840;SDS011;10581;48.524;9.040;2022-07-05T20:43:11;38.93;;;14.17;;
20840;SDS011;10581;48.524;9.040;2022-07-05T20:45:37;38.90;;;13.80;;
20840;SDS011;10581;48.524;9.040;2022-07-05T20:48:03;39.00;;;13.87;;
20840;SDS011;10581;48.524;9.040;2022-07-05T20:55:20;37.57;;;11.10;;
20840;SDS011;10581;48.524;9.040;2022-07-05T20:57:47;37.33;;;10.05;;
20840;SDS011;10581;48.524;9.040;2022-07-05T21:00:12;37.80;;;11.60;;
20840;SDS011;10581;48.524;9.040;2022-07-05T21:02:38;39.80;;;10.18;;
20840;SDS011;10581;48.524;9.040;2022-07-05T21:05:05;38.50;;;13.47;;
20840;SDS011;10581;48.524;9.040;2022-07-05T21:07:31;38.30;;;12.57;;
20840;SDS011;10581;48.524;9.040;2022-07-05T21:09:57;37.23;;;10.10;;
20840;SDS011;10581;48.524;9.040;2022-07-05T21:12:22;37.70;;;10.40;;
20840;SDS011;10581;48.524;9.040;2022-07-05T21:14:48;37.23;;;10.80;;
20840;SDS011;10581;48.524;9.040;2022-07-05T21:17:14;37.80;;;10.57;;
20840;SDS011;10581;48.524;9.040;2022-07-05T21:19:40;38.70;;;11.30;;
20840;SDS011;10581;48.524;9.040;2022-07-05T21:22:06;38.80;;;10.60;;
20840;SDS011;10581;48.524;9.040;2022-07-05T21:27:00;36.97;;;6.97;;
20840;SDS011;10581;48.524;9.040;2022-07-05T21:29:25;35.80;;;6.87;;
20840;SDS011;10581;48.524;9.040;2022-07-05T21:31:51;37.10;;;5.53;;
20840;SDS011;10581;48.524;9.040;2022-07-05T21:34:17;35.43;;;3.50;;
20840;SDS011;10581;48.524;9.040;2022-07-05T21:36:43;35.70;;;3.20;;
20840;SDS011;10581;48.524;9.040;2022-07-05T21:39:08;35.40;;;2.70;;
20840;SDS011;10581;48.524;9.040;2022-07-05T21:41:34;35.53;;;2.25;;
20840;SDS011;10581;48.524;9.040;2022-07-05T21:44:01;34.40;;;2.33;;
20840;SDS011;10581;48.524;9.040;2022-07-05T21:46:27;34.67;;;2.20;;
20840;SDS011;10581;48.524;9.040;2022-07-05T21:48:53;35.40;;;2.40;;
20840;SDS011;10581;48.524;9.040;2022-07-05T21:51:19;34.83;;;2.13;;
20840;SDS011;10581;48.524;9.040;2022-07-05T21:53:45;34.50;;;1.90;;
20840;SDS011;10581;48.524;9.040;2022-07-05T21:56:11;35.00;;;1.93;;
20840;SDS011;10581;48.524;9.040;2022-07-05T21:58:37;34.80;;;2.00;;
20840;SDS011;10581;48.524;9.040;2022-07-05T22:01:21;34.92;;;1.75;;
20840;SDS011;10581;48.524;9.040;2022-07-05T22:04:05;36.10;;;1.75;;
20840;SDS011;10581;48.524;9.040;2022-07-05T22:06:49;34.67;;;1.75;;
20840;SDS011;10581;48.524;9.040;2022-07-05T22:09:19;34.03;;;1.33;;
20840;SDS011;10581;48.524;9.040;2022-07-05T22:11:45;34.13;;;1.55;;
20840;SDS011;10581;48.524;9.040;2022-07-05T22:14:11;34.65;;;1.48;;
20840;SDS011;10581;48.524;9.040;2022-07-05T22:16:37;34.90;;;1.80;;
20840;SDS011;10581;48.524;9.040;2022-07-05T22:19:03;33.90;;;1.50;;
20840;SDS011;10581;48.524;9.040;2022-07-05T22:21:29;34.67;;;1.83;;
20840;SDS011;10581;48.524;9.040;2022-07-05T22:23:54;34.50;;;1.73;;
20840;SDS011;10581;48.524;9.040;2022-07-05T22:26:20;35.50;;;1.40;;
20840;SDS011;10581;48.524;9.040;2022-07-05T22:28:46;34.07;;;1.67;;
20840;SDS011;10581;48.524;9.040;2022-07-05T22:31:12;33.37;;;1.20;;
20840;SDS011;10581;48.524;9.040;2022-07-05T22:33:39;33.85;;;1.50;;
20840;SDS011;10581;48.524;9.040;2022-07-05T22:36:05;33.85;;;1.30;;
20840;SDS011;10581;48.524;9.040;2022-07-05T22:38:30;33.57;;;1.40;;
20840;SDS011;10581;48.524;9.040;2022-07-05T22:40:56;33.60;;;1.17;;
20840;SDS011;10581;48.524;9.040;2022-07-05T22:43:22;33.20;;;1.40;;
20840;SDS011;10581;48.524;9.040;2022-07-05T22:45:47;33.10;;;1.33;;
20840;SDS011;10581;48.524;9.040;2022-07-05T22:48:13;33.30;;;1.30;;
20840;SDS011;10581;48.524;9.040;2022-07-05T22:50:39;32.33;;;1.17;;
20840;SDS011;10581;48.524;9.040;2022-07-05T22:53:04;32.67;;;1.00;;
20840;SDS011;10581;48.524;9.040;2022-07-05T22:55:30;32.97;;;1.43;;
20840;SDS011;10581;48.524;9.040;2022-07-05T22:57:56;32.77;;;1.27;;
20840;SDS011;10581;48.524;9.040;2022-07-05T23:00:22;32.15;;;1.17;;
20840;SDS011;10581;48.524;9.040;2022-07-05T23:02:47;32.67;;;1.80;;